To NAV CANADA Home Page Login to a new session Search on AWWS site Feedback and Comments Disclaimer Vers la page française équivalente Tips FAQ What's new on the site To the Forecasts and Observations / NOTAM section To "File a Flight Plan" website Publications and other links Update of the User's profile FIC Telephone Numbers My Weather Data Folder Route Weather Data Regional Weather Data Local Weather Data To the Forecasts and Observations / NOTAM section
Request Generated 01/17/2017 at 04:43:46 UTC . Weather information available at that time is displayed.

METAR/TAF

CHURCHILL/MB    (show WxCam)

METAR CYYQ 170400Z 20016G22KT 15SM IC DRSN OVC150 M10/M12 A2949 RMK
AC8 PRESFR SLP992=
METAR CYYQ 170300Z 19016G21KT 15SM IC DRSN SCT170 OVC190 M12/M13
A2953 RMK AC4AC4 SLP006=
SPECI CYYQ 170250Z 20016G22KT 10SM IC DRSN FEW160 OVC190 M12/M13
A2955 RMK AC2AC6 SLP012=
SPECI CYYQ 170222Z 19017KT 10SM -SN DRSN SCT008 BKN200 M12/M14 A2956
RMK ST3CI4 PRESFR SLP014=
METAR CYYQ 170200Z 19015G21KT 10SM -SN DRSN BKN008 BKN210 M13/M14
A2958 RMK ST5CI2 PRESFR SLP023=

TAF AMD CYYQ 170242Z 1702/1724 19018KT P6SM -SN SCT008 OVC200 TEMPO
1702/1706 5SM -SN BKN008 OVC200
FM170600 22018KT P6SM SCT012 TEMPO 1706/1710 P6SM -SN BKN012
FM171000 24015KT P6SM FEW060 SCT220
FM171900 22012KT 6SM -SN BKN020 OVC060 PROB30 1719/1721 P6SM
-FZRA -PL
FM172100 24010KT 11/2SM -SN VV012 PROB40 1721/1724 3/4SM -SN
VV008
RMK NXT FCST BY 170600Z=
Your time UTC time
Weather data provided by Environment Canada and NAV CANADA